Time;durP1;ratioP1;P1;durP2;ratioP2;P2;SDS_P1;SDS_P2;PMS_P1;PMS_P2;Temp;Humidity;BMP_temperature;BMP_pressure;BME280_temperature;BME280_humidity;BME280_pressure;Samples;Min_cycle;Max_cycle;Signal;HPM_P1;HPM_P2
2022/09/13 00:00:50;;;;;;;13.07;11.68;;;;;;;16.06;93.19;100843.09;2063348;28;39514;-75
2022/09/13 00:01:52;;;;;;;15.30;11.68;;;;;;;16.05;92.51;100847.63;2062154;28;36001;-75
2022/09/13 00:02:54;;;;;;;18.85;15.40;;;;;;;16.06;92.76;100845.78;2062559;28;37394;-75
2022/09/13 00:03:55;;;;;;;18.58;13.45;;;;;;;16.03;92.80;100828.78;2062952;28;32056;-76
2022/09/13 00:04:57;;;;;;;17.73;14.73;;;;;;;16.02;93.53;100816.25;2063188;28;36838;-76
2022/09/13 00:06:12;;;;;;;17.48;14.98;;;;;;;16.01;93.62;100838.78;2063167;28;35142;-76
2022/09/13 00:07:13;;;;;;;18.23;14.52;;;;;;;15.99;93.75;100831.72;2054336;28;40106;-76
2022/09/13 00:08:16;;;;;;;17.67;15.43;;;;;;;15.98;94.35;100836.22;2055390;28;31605;-75
2022/09/13 00:09:18;;;;;;;17.75;14.68;;;;;;;15.97;93.68;100825.47;2062763;28;33681;-76
2022/09/13 00:10:20;;;;;;;16.85;14.52;;;;;;;15.96;94.00;100812.94;2064416;28;33863;-76
2022/09/13 00:11:26;;;;;;;20.58;15.07;;;;;;;15.96;94.67;100811.13;2064832;28;33729;-77
2022/09/13 00:12:28;;;;;;;21.20;16.20;;;;;;;15.93;95.31;100808.56;2064724;28;29261;-77
2022/09/13 00:13:30;;;;;;;22.60;16.83;;;;;;;15.90;96.88;100816.81;2064837;28;30220;-77
2022/09/13 00:14:31;;;;;;;18.77;16.77;;;;;;;15.87;97.23;100811.56;2063699;28;32750;-76
2022/09/13 00:15:35;;;;;;;18.30;14.23;;;;;;;15.84;96.22;100811.69;2064493;28;24463;-76
2022/09/13 00:16:37;;;;;;;15.30;13.48;;;;;;;15.83;95.96;100818.06;2063408;28;40375;-76
2022/09/13 00:17:39;;;;;;;19.38;14.40;;;;;;;15.80;96.79;100815.50;2064879;28;26622;-76
2022/09/13 00:18:41;;;;;;;16.33;14.32;;;;;;;15.78;96.59;100817.38;2064427;28;33004;-76
2022/09/13 00:19:43;;;;;;;15.98;14.23;;;;;;;15.77;97.32;100803.03;2064676;28;30120;-76
2022/09/13 00:20:45;;;;;;;16.00;14.30;;;;;;;15.77;98.17;100794.03;2064537;28;32010;-76
2022/09/13 00:21:47;;;;;;;21.42;16.70;;;;;;;15.75;97.59;100806.72;2064610;28;31529;-76
2022/09/13 00:22:49;;;;;;;18.23;15.70;;;;;;;15.72;97.67;100796.94;2064214;28;37934;-77
2022/09/13 00:23:53;;;;;;;20.33;16.20;;;;;;;15.72;98.40;100804.13;2064720;28;29673;-77
2022/09/13 00:24:55;;;;;;;21.48;18.27;;;;;;;15.73;100.00;100811.28;2064081;28;39256;-77
2022/09/13 00:26:07;;;;;;;22.30;18.20;;;;;;;15.72;100.00;100809.53;2064435;28;30125;-77
2022/09/13 00:27:09;;;;;;;20.45;16.90;;;;;;;15.71;100.00;100813.19;2064496;28;36520;-75
2022/09/13 00:28:11;;;;;;;19.52;16.80;;;;;;;15.70;100.00;100806.91;2064811;28;30479;-76
2022/09/13 00:29:13;;;;;;;22.75;18.30;;;;;;;15.69;100.00;100798.91;2064636;28;20904;-75
2022/09/13 00:30:14;;;;;;;19.95;16.83;;;;;;;15.68;100.00;100805.22;2064329;28;36038;-76
2022/09/13 00:31:19;;;;;;;20.20;16.73;;;;;;;15.66;100.00;100808.84;2064356;28;20900;-76
2022/09/13 00:32:20;;;;;;;21.55;18.23;;;;;;;15.67;100.00;100804.34;2063700;28;38843;-75
2022/09/13 00:33:22;;;;;;;18.85;16.77;;;;;;;15.68;100.00;100799.81;2064179;28;32153;-75
2022/09/13 00:34:24;;;;;;;21.17;17.38;;;;;;;15.68;100.00;100797.13;2064410;28;20058;-75
2022/09/13 00:35:25;;;;;;;18.25;16.15;;;;;;;15.66;100.00;100791.78;2063690;28;33901;-75
2022/09/13 00:36:28;;;;;;;23.23;18.67;;;;;;;15.68;100.00;100791.72;2064675;28;34141;-75
2022/09/13 00:37:31;;;;;;;19.40;16.45;;;;;;;15.65;100.00;100782.84;2064638;28;29985;-75
2022/09/13 00:38:39;;;;;;;20.67;16.90;;;;;;;15.66;100.00;100784.56;2064619;28;30498;-75
2022/09/13 00:39:41;;;;;;;19.00;15.70;;;;;;;15.65;100.00;100788.22;2065157;28;20039;-75
2022/09/13 00:40:47;;;;;;;21.80;17.25;;;;;;;15.66;100.00;100783.69;2064243;28;34661;-75
2022/09/13 00:41:49;;;;;;;21.83;17.92;;;;;;;15.65;99.95;100790.06;2064501;28;29145;-75
2022/09/13 00:42:51;;;;;;;19.58;16.67;;;;;;;15.64;99.57;100786.47;2064743;28;21807;-75
2022/09/13 00:44:00;;;;;;;19.60;15.93;;;;;;;15.65;100.00;100779.28;2064493;28;36668;-75
2022/09/13 00:45:11;;;;;;;22.38;17.90;;;;;;;15.64;100.00;100774.81;2064196;28;33085;-75
2022/09/13 00:46:41;;;;;;;18.27;16.20;;;;;;;15.63;100.00;100771.25;2064437;28;36231;-76
2022/09/13 00:48:03;;;;;;;18.88;16.02;;;;;;;15.61;100.00;100774.94;2064246;28;40740;-76
2022/09/13 00:49:13;;;;;;;18.75;16.27;;;;;;;15.59;100.00;100775.00;2064444;28;32094;-76
2022/09/13 00:50:26;;;;;;;18.77;16.83;;;;;;;15.59;100.00;100784.94;2064742;28;27831;-76
2022/09/13 00:51:29;;;;;;;23.02;18.27;;;;;;;15.59;100.00;100783.09;2064137;28;28856;-76
2022/09/13 00:52:33;;;;;;;20.23;17.30;;;;;;;15.58;100.00;100784.06;2063723;28;40776;-75
2022/09/13 00:53:40;;;;;;;19.73;17.20;;;;;;;15.59;100.00;100768.75;2063481;28;33360;-76
2022/09/13 00:54:51;;;;;;;18.95;15.93;;;;;;;15.59;100.00;100774.13;2063691;28;31525;-75
2022/09/13 00:56:10;;;;;;;20.33;14.98;;;;;;;15.57;100.00;100774.22;2062934;28;29992;-75
2022/09/13 00:57:17;;;;;;;17.00;15.20;;;;;;;15.56;100.00;100776.97;2064051;28;38025;-75
2022/09/13 00:58:51;;;;;;;17.02;15.20;;;;;;;15.56;100.00;100774.28;2064056;28;42320;-75
2022/09/13 01:00:15;;;;;;;21.15;18.00;;;;;;;15.54;100.00;100763.56;2062711;28;29273;-75
2022/09/13 01:01:22;;;;;;;22.08;16.80;;;;;;;15.55;100.00;100772.53;2071466;28;30638;-75
2022/09/13 01:02:25;;;;;;;17.05;15.25;;;;;;;15.52;100.00;100767.28;2063691;28;37599;-75
2022/09/13 01:03:32;;;;;;;21.05;17.00;;;;;;;15.51;100.00;100763.72;2064588;28;32691;-75
2022/09/13 01:04:36;;;;;;;20.23;17.30;;;;;;;15.51;100.00;100770.94;2064255;28;20043;-75
2022/09/13 01:05:47;;;;;;;21.45;17.42;;;;;;;15.51;100.00;100771.81;2065435;28;20050;-75
2022/09/13 01:06:53;;;;;;;20.58;17.45;;;;;;;15.50;100.00;100769.16;2070412;28;33713;-75
2022/09/13 01:07:56;;;;;;;19.85;17.63;;;;;;;15.51;100.00;100769.09;2064108;28;37463;-75
2022/09/13 01:09:03;;;;;;;19.63;17.27;;;;;;;15.50;100.00;100770.03;2063917;28;28885;-75
2022/09/13 01:10:07;;;;;;;19.60;17.08;;;;;;;15.49;100.00;100762.91;2064508;28;20153;-75
2022/09/13 01:11:18;;;;;;;22.58;17.33;;;;;;;15.50;100.00;100763.78;2063722;28;35223;-75
2022/09/13 01:12:50;;;;;;;20.85;17.80;;;;;;;15.49;100.00;100762.00;2065136;28;31930;-75
2022/09/13 01:13:55;;;;;;;23.13;17.63;;;;;;;15.49;100.00;100759.31;2064462;28;20165;-74
2022/09/13 01:14:59;;;;;;;20.75;18.33;;;;;;;15.48;100.00;100761.16;2066087;28;32773;-76
2022/09/13 01:16:01;;;;;;;21.08;18.75;;;;;;;15.49;100.00;100756.63;2071319;28;27688;-75
2022/09/13 01:17:04;;;;;;;21.30;16.67;;;;;;;15.48;100.00;100755.75;2063644;28;35679;-75
2022/09/13 01:18:08;;;;;;;19.42;17.30;;;;;;;15.47;100.00;100751.31;2064753;28;20031;-77
2022/09/13 01:19:10;;;;;;;22.38;17.50;;;;;;;15.48;100.00;100749.50;2062783;28;33396;-77
2022/09/13 01:20:13;;;;;;;24.13;18.48;;;;;;;15.46;100.00;100739.63;2063680;28;28998;-77
2022/09/13 01:21:52;;;;;;;18.25;16.08;;;;;;;15.46;100.00;100744.16;2063875;28;34464;-77
2022/09/13 01:22:59;;;;;;;18.65;16.17;;;;;;;15.46;100.00;100741.47;2063835;28;35737;-75
2022/09/13 01:24:32;;;;;;;19.05;16.05;;;;;;;15.45;100.00;100743.28;2064067;28;34162;-75
2022/09/13 01:26:17;;;;;;;21.17;15.80;;;;;;;15.46;100.00;100738.75;2062811;28;31623;-76
2022/09/13 01:27:45;;;;;;;20.20;17.00;;;;;;;15.45;100.00;100727.09;2064017;28;35910;-75
2022/09/13 01:29:18;;;;;;;20.85;16.92;;;;;;;15.45;100.00;100723.50;2063985;28;35846;-75
2022/09/13 01:30:28;;;;;;;17.80;15.90;;;;;;;15.45;100.00;100719.00;2064014;28;35741;-76
2022/09/13 01:31:39;;;;;;;20.50;16.13;;;;;;;15.46;100.00;100722.56;2064548;28;30483;-75
2022/09/13 01:33:00;;;;;;;18.10;16.17;;;;;;;15.46;100.00;100719.88;2063735;28;33518;-75
2022/09/13 01:34:01;;;;;;;;;;;;;;;15.47;100.00;100721.63;2064414;28;37647;-75
2022/09/13 01:35:22;;;;;;;17.85;13.77;;;;;;;15.47;100.00;100710.84;2063861;28;36153;-75
2022/09/13 01:36:41;;;;;;;17.17;13.85;;;;;;;15.46;100.00;100709.94;2063860;28;33326;-75
2022/09/13 01:38:22;;;;;;;17.83;14.38;;;;;;;15.47;100.00;100713.53;2062874;28;32392;-76
2022/09/13 01:39:54;;;;;;;18.88;15.57;;;;;;;15.48;100.00;100711.72;2063184;28;33112;-76
2022/09/13 01:41:28;;;;;;;16.83;14.93;;;;;;;15.47;100.00;100713.53;2063799;28;37137;-76
2022/09/13 01:42:59;;;;;;;17.63;15.80;;;;;;;15.47;100.00;100716.25;2064224;28;20046;-75
2022/09/13 01:44:38;;;;;;;16.35;14.48;;;;;;;15.48;100.00;100711.72;2063242;28;37988;-75
2022/09/13 01:45:58;;;;;;;18.05;15.60;;;;;;;15.49;100.00;100711.66;2063915;28;32892;-76
2022/09/13 01:47:26;;;;;;;19.65;16.48;;;;;;;15.49;100.00;100700.84;2064305;28;40187;-76
2022/09/13 01:49:11;;;;;;;18.20;15.55;;;;;;;15.49;100.00;100705.34;2064112;28;35310;-75
2022/09/13 01:50:46;;;;;;;17.30;14.57;;;;;;;15.47;100.00;100694.66;2063888;28;31841;-76
2022/09/13 01:52:17;;;;;;;17.75;15.10;;;;;;;15.46;100.00;100704.56;2063507;28;35200;-76
2022/09/13 01:53:48;;;;;;;16.65;14.15;;;;;;;15.46;100.00;100706.38;2064489;28;20046;-76
2022/09/13 01:55:04;;;;;;;14.80;13.07;;;;;;;15.47;100.00;100700.06;2063509;28;33882;-76
2022/09/13 01:56:32;;;;;;;16.77;14.73;;;;;;;15.47;100.00;100700.06;2068469;28;32596;-76
2022/09/13 01:57:55;;;;;;;17.35;15.30;;;;;;;15.46;100.00;100699.16;2064336;28;20047;-76
2022/09/13 01:59:49;;;;;;;19.25;15.57;;;;;;;15.48;100.00;100695.53;2063349;28;38255;-76
2022/09/13 02:01:15;;;;;;;17.48;15.50;;;;;;;15.47;100.00;100697.34;2059124;28;22421;-76
2022/09/13 02:02:37;;;;;;;19.15;16.20;;;;;;;15.48;100.00;100691.00;2063897;28;39114;-76
2022/09/13 02:04:16;;;;;;;18.00;15.43;;;;;;;15.46;100.00;100698.28;2063103;28;40505;-76
2022/09/13 02:05:45;;;;;;;19.27;15.77;;;;;;;15.45;100.00;100696.53;2070184;28;37419;-75
2022/09/13 02:07:25;;;;;;;14.32;12.77;;;;;;;15.46;100.00;100698.28;2062987;28;33515;-76
2022/09/13 02:08:40;;;;;;;16.30;13.65;;;;;;;15.46;100.00;100703.69;2070046;28;37746;-75
2022/09/13 02:09:48;;;;;;;18.92;15.13;;;;;;;15.45;100.00;100707.31;2063194;28;33902;-75
2022/09/13 02:11:07;;;;;;;17.73;14.75;;;;;;;15.45;100.00;100696.53;2062998;28;35113;-76
2022/09/13 02:12:26;;;;;;;18.58;14.43;;;;;;;15.46;100.00;100695.59;2062729;28;29616;-75
2022/09/13 02:13:37;;;;;;;16.38;14.65;;;;;;;15.45;100.00;100692.03;2067589;28;20046;-76
2022/09/13 02:14:43;;;;;;;17.05;15.07;;;;;;;15.46;100.00;100695.59;2062332;28;40690;-75
2022/09/13 02:15:53;;;;;;;17.38;14.25;;;;;;;15.46;100.00;100688.34;2056653;28;37410;-76
2022/09/13 02:17:02;;;;;;;;;;;;;;;15.45;100.00;100691.13;2064572;28;39317;-76
2022/09/13 02:18:24;;;;;;;20.40;15.23;;;;;;;15.46;100.00;100685.66;2069730;28;36279;-76
2022/09/13 02:19:55;;;;;;;17.65;15.40;;;;;;;15.44;100.00;100692.97;2062887;28;31449;-76
2022/09/13 02:21:06;;;;;;;19.58;15.75;;;;;;;15.45;100.00;100701.91;2062863;28;34929;-75
2022/09/13 02:22:12;;;;;;;17.75;15.43;;;;;;;15.46;100.00;100699.16;2062520;28;35905;-75
2022/09/13 02:23:23;;;;;;;21.98;16.48;;;;;;;15.45;100.00;100697.41;2064232;28;40296;-75
2022/09/13 02:24:49;;;;;;;18.13;16.08;;;;;;;15.44;100.00;100700.19;2064282;28;20745;-75
2022/09/13 02:25:54;;;;;;;17.85;15.05;;;;;;;15.44;100.00;100700.19;2067304;28;39538;-75
2022/09/13 02:27:04;;;;;;;19.95;16.20;;;;;;;15.46;100.00;100692.88;2063989;28;20047;-75
2022/09/13 02:28:14;;;;;;;20.60;16.58;;;;;;;15.45;100.00;100694.72;2064968;28;39851;-75
2022/09/13 02:29:21;;;;;;;;;;;;;;;15.47;100.00;100694.66;2064777;28;20141;-75
2022/09/13 02:30:23;;;;;;;19.10;16.15;;;;;;;15.47;100.00;100694.66;2063460;28;39588;-75
2022/09/13 02:31:34;;;;;;;18.80;16.27;;;;;;;15.46;100.00;100691.06;2063345;28;37464;-75
2022/09/13 02:32:56;;;;;;;20.02;15.80;;;;;;;15.48;100.00;100687.44;2063270;28;31575;-75
2022/09/13 02:34:04;;;;;;;18.20;14.93;;;;;;;15.49;100.00;100686.47;2063099;28;35330;-76
2022/09/13 02:35:17;;;;;;;17.42;15.05;;;;;;;15.50;100.00;100694.50;2063679;28;32391;-76
2022/09/13 02:36:26;;;;;;;20.70;16.30;;;;;;;15.49;100.00;100687.34;2063119;28;39912;-76
2022/09/13 02:37:32;;;;;;;18.10;16.05;;;;;;;15.52;100.00;100686.31;2063206;28;37347;-76
2022/09/13 02:38:55;;;;;;;21.15;17.38;;;;;;;15.51;100.00;100680.06;2063085;28;33894;-75
2022/09/13 02:40:03;;;;;;;18.27;16.30;;;;;;;15.52;100.00;100678.22;2063428;28;35491;-75
2022/09/13 02:41:46;;;;;;;21.60;17.55;;;;;;;15.51;100.00;100676.50;2063942;28;20043;-75
2022/09/13 02:43:00;;;;;;;18.67;15.75;;;;;;;15.50;100.00;100681.00;2062339;28;32065;-77
2022/09/13 02:44:34;;;;;;;21.92;17.08;;;;;;;15.51;100.00;100677.38;2063354;28;37283;-77
2022/09/13 02:45:55;;;;;;;21.00;15.90;;;;;;;15.49;100.00;100675.66;2064927;28;35744;-77
2022/09/13 02:47:10;;;;;;;20.45;16.17;;;;;;;15.47;100.00;100675.78;2063733;28;31552;-74
2022/09/13 02:48:35;;;;;;;19.48;16.02;;;;;;;15.47;100.00;100670.38;2062711;28;33464;-75
2022/09/13 02:49:58;;;;;;;22.42;16.23;;;;;;;15.46;100.00;100677.56;2067696;28;20049;-74
2022/09/13 02:51:14;;;;;;;19.17;15.27;;;;;;;15.46;100.00;100676.69;2067212;28;34528;-75
2022/09/13 02:52:33;;;;;;;22.65;17.80;;;;;;;15.45;100.00;100665.03;2063483;28;20844;-75
2022/09/13 02:53:47;;;;;;;19.42;16.55;;;;;;;15.46;100.00;100665.91;2067591;28;30161;-75
2022/09/13 02:55:07;;;;;;;22.02;17.85;;;;;;;15.45;100.00;100665.03;2063358;28;20121;-75
2022/09/13 02:56:41;;;;;;;19.33;16.42;;;;;;;15.45;100.00;100666.84;2065792;28;40992;-76
2022/09/13 02:58:27;;;;;;;18.10;15.05;;;;;;;15.44;100.00;100670.50;2066113;28;20035;-76
2022/09/13 02:59:29;;;;;;;21.48;17.02;;;;;;;15.42;100.00;100669.72;2056672;28;39040;-75
2022/09/13 03:00:31;;;;;;;21.40;16.70;;;;;;;15.44;100.00;100668.69;2059546;28;38904;-75
2022/09/13 03:01:36;;;;;;;18.55;16.20;;;;;;;15.44;100.00;100667.81;2055010;28;34003;-75
2022/09/13 03:02:41;;;;;;;20.42;17.05;;;;;;;15.43;100.00;100666.94;2063213;28;40611;-75
2022/09/13 03:03:43;;;;;;;21.25;16.90;;;;;;;15.44;100.00;100668.69;2069935;28;31329;-75
2022/09/13 03:04:45;;;;;;;18.60;16.05;;;;;;;15.45;100.00;100675.84;2063491;28;34491;-75
2022/09/13 03:05:47;;;;;;;19.67;17.30;;;;;;;15.47;100.00;100675.78;2064000;28;22558;-75
2022/09/13 03:06:49;;;;;;;19.92;16.85;;;;;;;15.46;100.00;100669.47;2063578;28;20966;-75
2022/09/13 03:07:51;;;;;;;20.90;17.10;;;;;;;15.48;100.00;100665.84;2062755;28;38147;-75
2022/09/13 03:09:04;;;;;;;26.13;18.48;;;;;;;15.48;100.00;100672.09;2062175;28;30061;-75
2022/09/13 03:10:12;;;;;;;22.40;17.95;;;;;;;15.50;100.00;100672.03;2063263;28;30636;-75
2022/09/13 03:11:49;;;;;;;21.25;17.33;;;;;;;15.50;100.00;100672.03;2062495;28;40159;-75
2022/09/13 03:13:22;;;;;;;21.63;15.73;;;;;;;15.49;100.00;100665.78;2062674;28;39355;-76
2022/09/13 03:14:45;;;;;;;22.15;17.13;;;;;;;15.49;100.00;100675.66;2070486;28;41217;-75
2022/09/13 03:16:22;;;;;;;22.63;17.65;;;;;;;15.49;100.00;100681.97;2062183;28;30957;-74
2022/09/13 03:17:58;;;;;;;19.77;16.38;;;;;;;15.50;100.00;100666.63;2057191;28;33865;-75
2022/09/13 03:19:10;;;;;;;21.42;16.90;;;;;;;15.50;100.00;100670.19;2063171;28;34134;-75
2022/09/13 03:20:29;;;;;;;20.10;16.25;;;;;;;15.51;100.00;100669.28;2063480;28;32555;-75
2022/09/13 03:22:19;;;;;;;22.35;18.20;;;;;;;15.52;100.00;100665.59;2063079;28;37866;-75
2022/09/13 03:23:48;;;;;;;23.27;18.13;;;;;;;15.52;100.00;100672.84;2062130;28;32933;-75
2022/09/13 03:25:28;;;;;;;20.67;17.30;;;;;;;15.51;100.00;100663.00;2064171;28;31793;-75
2022/09/13 03:27:05;;;;;;;20.13;16.73;;;;;;;15.51;100.00;100666.56;2066936;28;20171;-75
2022/09/13 03:28:34;;;;;;;19.67;16.65;;;;;;;15.53;100.00;100666.50;2063096;28;35601;-75
2022/09/13 03:30:06;;;;;;;21.23;16.10;;;;;;;15.52;100.00;100673.69;2062583;28;38511;-75
2022/09/13 03:31:19;;;;;;;22.73;18.23;;;;;;;15.53;100.00;100680.84;2062970;28;42327;-75
2022/09/13 03:32:47;;;;;;;21.35;17.75;;;;;;;15.53;100.00;100683.56;2063311;28;33222;-75
2022/09/13 03:34:03;;;;;;;22.83;18.55;;;;;;;15.54;100.00;100679.91;2062756;28;41256;-74
2022/09/13 03:35:44;;;;;;;22.33;17.80;;;;;;;15.55;100.00;100681.66;2063741;28;30540;-75
2022/09/13 03:36:56;;;;;;;21.80;16.83;;;;;;;15.55;100.00;100681.66;2062912;28;34591;-75
2022/09/13 03:38:14;;;;;;;23.30;19.13;;;;;;;15.56;100.00;100683.41;2066810;28;40536;-74
2022/09/13 03:39:28;;;;;;;25.98;18.83;;;;;;;15.57;100.00;100684.28;2065861;28;37130;-75
2022/09/13 03:41:09;;;;;;;26.17;18.05;;;;;;;15.58;100.00;100686.06;2063192;28;38196;-75
2022/09/13 03:42:43;;;;;;;23.33;17.60;;;;;;;15.59;100.00;100687.78;2062716;28;29919;-75
2022/09/13 03:43:52;;;;;;;22.63;16.73;;;;;;;15.58;100.00;100686.91;2071389;28;41669;-74
2022/09/13 03:44:56;;;;;;;18.67;15.68;;;;;;;15.59;100.00;100688.66;2063971;28;33190;-74
2022/09/13 03:46:02;;;;;;;23.98;18.80;;;;;;;15.61;100.00;100688.56;2063745;28;39723;-76
2022/09/13 03:47:06;;;;;;;20.27;16.52;;;;;;;15.62;100.00;100685.81;2062060;28;37591;-74
2022/09/13 03:48:17;;;;;;;25.52;17.95;;;;;;;15.60;100.00;100685.00;2063159;28;33894;-76
2022/09/13 03:49:22;;;;;;;22.40;17.20;;;;;;;15.62;100.00;100688.50;2063153;28;41095;-76
2022/09/13 03:50:25;;;;;;;21.77;17.45;;;;;;;15.63;100.00;100694.78;2064872;28;35848;-74
2022/09/13 03:51:27;;;;;;;23.83;17.50;;;;;;;15.63;100.00;100692.06;2071538;28;35322;-74
2022/09/13 03:52:29;;;;;;;22.42;18.08;;;;;;;15.64;100.00;100694.69;2071497;28;31690;-76
2022/09/13 03:53:34;;;;;;;22.42;18.20;;;;;;;15.64;100.00;100685.75;2065335;28;29484;-76
2022/09/13 03:54:37;;;;;;;25.17;18.13;;;;;;;15.64;100.00;100692.00;2063797;28;41180;-76
2022/09/13 03:55:43;;;;;;;27.20;19.80;;;;;;;15.65;100.00;100693.75;2064934;28;20066;-76
2022/09/13 03:57:14;;;;;;;24.77;19.05;;;;;;;15.66;100.00;100698.19;2070952;28;37865;-76
2022/09/13 03:58:19;;;;;;;21.90;18.48;;;;;;;15.65;100.00;100696.47;2065269;28;20050;-75
2022/09/13 03:59:21;;;;;;;22.27;17.02;;;;;;;15.66;100.00;100700.91;2064357;28;35545;-75
2022/09/13 04:00:23;;;;;;;22.65;17.13;;;;;;;15.66;100.00;100700.91;2064502;28;35673;-75
2022/09/13 04:01:26;;;;;;;26.20;19.17;;;;;;;15.65;100.00;100690.19;2065093;28;20039;-74
2022/09/13 04:02:28;;;;;;;26.73;18.98;;;;;;;15.66;100.00;100697.34;2064012;28;37662;-75
2022/09/13 04:03:32;;;;;;;25.00;19.50;;;;;;;15.66;100.00;100702.72;2064059;28;35482;-73
2022/09/13 04:04:34;;;;;;;28.40;19.90;;;;;;;15.66;100.00;100695.50;2064635;28;29301;-75
2022/09/13 04:05:36;;;;;;;25.30;19.35;;;;;;;15.66;100.00;100694.63;2063706;28;31955;-74
2022/09/13 04:06:38;;;;;;;27.67;19.27;;;;;;;15.68;100.00;100691.88;2063654;28;31495;-73
2022/09/13 04:07:39;;;;;;;26.85;18.92;;;;;;;15.66;100.00;100695.50;2064235;28;27851;-73
2022/09/13 04:08:42;;;;;;;29.70;19.83;;;;;;;15.66;100.00;100692.81;2063617;28;33282;-74
2022/09/13 04:09:44;;;;;;;26.40;21.08;;;;;;;15.67;100.00;100696.41;2063669;28;38019;-74
2022/09/13 04:10:50;;;;;;;26.42;20.70;;;;;;;15.66;100.00;100700.03;2064006;28;30371;-74
2022/09/13 04:11:52;;;;;;;28.38;19.33;;;;;;;15.66;100.00;100695.50;2064050;28;29088;-73
2022/09/13 04:12:54;;;;;;;24.85;19.95;;;;;;;15.66;100.00;100695.50;2064492;28;30538;-73
2022/09/13 04:13:57;;;;;;;28.10;20.83;;;;;;;15.66;100.00;100695.50;2063843;28;40465;-73
2022/09/13 04:14:59;;;;;;;26.13;20.15;;;;;;;15.64;100.00;100692.00;2065310;28;20039;-73
2022/09/13 04:16:04;;;;;;;26.05;20.13;;;;;;;15.65;100.00;100696.47;2065203;28;26741;-74
2022/09/13 04:17:06;;;;;;;23.60;19.30;;;;;;;15.65;100.00;100699.16;2064475;28;32685;-73
2022/09/13 04:18:08;;;;;;;23.10;19.13;;;;;;;15.66;100.00;100694.63;2064324;28;36317;-73
2022/09/13 04:19:09;;;;;;;28.13;21.85;;;;;;;15.66;100.00;100700.03;2064468;28;34375;-73
2022/09/13 04:20:11;;;;;;;27.17;21.25;;;;;;;15.66;100.00;100700.91;2064235;28;36488;-73
2022/09/13 04:21:13;;;;;;;28.48;20.67;;;;;;;15.66;100.00;100700.03;2063598;28;35345;-73
2022/09/13 04:22:15;;;;;;;29.00;20.33;;;;;;;15.66;100.00;100691.94;2064376;28;34476;-73
2022/09/13 04:23:16;;;;;;;31.42;22.33;;;;;;;15.65;100.00;100698.31;2065079;28;20046;-74
2022/09/13 04:24:19;;;;;;;29.50;21.30;;;;;;;15.64;100.00;100697.41;2064184;28;38393;-73
2022/09/13 04:25:22;;;;;;;27.42;20.85;;;;;;;15.65;100.00;100695.59;2064277;28;36278;-73
2022/09/13 04:26:24;;;;;;;28.00;20.25;;;;;;;15.66;100.00;100694.63;2064328;28;21331;-73
2022/09/13 04:27:28;;;;;;;31.75;22.70;;;;;;;15.65;100.00;100699.16;2064980;28;20897;-74
2022/09/13 04:28:29;;;;;;;27.92;22.38;;;;;;;15.65;100.00;100693.75;2064316;28;39410;-73
2022/09/13 04:29:58;;;;;;;26.92;20.83;;;;;;;15.65;100.00;100701.88;2064835;28;25827;-73
2022/09/13 04:31:23;;;;;;;31.45;23.42;;;;;;;15.66;100.00;100695.50;2064413;28;20050;-74
2022/09/13 04:32:25;;;;;;;27.85;20.58;;;;;;;15.65;100.00;100704.56;2064333;28;31620;-73
2022/09/13 04:33:27;;;;;;;32.10;22.63;;;;;;;15.65;100.00;100693.75;2064219;28;36125;-73
2022/09/13 04:34:28;;;;;;;32.92;23.08;;;;;;;15.66;100.00;100700.03;2064702;28;20042;-75
2022/09/13 04:35:30;;;;;;;32.03;23.08;;;;;;;15.66;100.00;100700.03;2064341;28;32080;-75
2022/09/13 04:36:32;;;;;;;31.42;22.50;;;;;;;15.65;100.00;100701.00;2064485;28;30239;-75
2022/09/13 04:37:34;;;;;;;30.50;22.67;;;;;;;15.66;100.00;100706.28;2063556;28;30009;-74
2022/09/13 04:38:36;;;;;;;30.73;22.00;;;;;;;15.65;100.00;100707.25;2064765;28;37284;-75
2022/09/13 04:39:40;;;;;;;29.80;21.67;;;;;;;15.65;100.00;100704.56;2064146;28;30738;-75
2022/09/13 04:40:42;;;;;;;31.38;23.17;;;;;;;15.65;100.00;100693.75;2063952;28;38148;-75
2022/09/13 04:41:47;;;;;;;28.75;21.52;;;;;;;15.65;100.00;100696.47;2064089;28;30934;-75
2022/09/13 04:42:53;;;;;;;35.53;24.33;;;;;;;15.65;100.00;100693.75;2064681;28;20812;-73
2022/09/13 04:43:54;;;;;;;26.42;20.92;;;;;;;15.64;100.00;100702.81;2064391;28;33259;-74
2022/09/13 04:44:59;;;;;;;26.48;20.35;;;;;;;15.65;100.00;100699.16;2064770;28;20108;-73
2022/09/13 04:46:01;;;;;;;29.23;22.63;;;;;;;15.66;100.00;100695.50;2064878;28;20034;-72
2022/09/13 04:47:04;;;;;;;30.50;22.50;;;;;;;15.67;100.00;100696.41;2064254;28;34345;-73
2022/09/13 04:48:07;;;;;;;32.35;21.73;;;;;;;15.66;100.00;100697.34;2064488;28;30864;-75
2022/09/13 04:49:09;;;;;;;29.25;22.00;;;;;;;15.66;100.00;100700.03;2063880;28;36265;-73
2022/09/13 04:50:11;;;;;;;27.98;21.15;;;;;;;15.68;100.00;100702.66;2064426;28;33113;-73
2022/09/13 04:51:13;;;;;;;28.67;21.65;;;;;;;15.68;100.00;100702.66;2064232;28;31724;-73
2022/09/13 04:52:15;;;;;;;31.35;22.40;;;;;;;15.69;100.00;100709.81;2064315;28;31676;-73
2022/09/13 04:53:17;;;;;;;35.72;24.27;;;;;;;15.69;100.00;100707.13;2064115;28;33915;-73
2022/09/13 04:54:19;;;;;;;29.30;21.42;;;;;;;15.69;100.00;100709.81;2064695;28;20078;-73
2022/09/13 04:55:21;;;;;;;30.88;23.58;;;;;;;15.69;100.00;100707.13;2063191;28;39588;-73
2022/09/13 04:56:26;;;;;;;32.08;22.65;;;;;;;15.68;100.00;100714.31;2064045;28;29802;-73
2022/09/13 04:57:28;;;;;;;29.42;23.05;;;;;;;15.68;100.00;100708.06;2064137;28;27721;-73
2022/09/13 04:58:33;;;;;;;29.20;21.92;;;;;;;15.68;100.00;100711.63;2063978;28;34472;-73
2022/09/13 04:59:34;;;;;;;30.90;23.00;;;;;;;15.70;100.00;100714.25;2064932;28;20752;-73
2022/09/13 05:00:36;;;;;;;30.48;21.23;;;;;;;15.69;100.00;100716.09;2063981;28;38950;-74
2022/09/13 05:01:38;;;;;;;34.58;22.55;;;;;;;15.69;100.00;100707.13;2064611;28;35797;-73
2022/09/13 05:02:40;;;;;;;31.45;23.33;;;;;;;15.69;100.00;100713.38;2064980;28;20039;-74
2022/09/13 05:03:42;;;;;;;30.33;23.08;;;;;;;15.70;100.00;100706.16;2064229;28;34770;-73
2022/09/13 05:04:43;;;;;;;27.38;20.58;;;;;;;15.70;100.00;100703.47;2064004;28;33247;-73
2022/09/13 05:05:45;;;;;;;31.02;22.48;;;;;;;15.70;100.00;100711.56;2064681;28;20051;-73
2022/09/13 05:06:47;;;;;;;31.48;22.15;;;;;;;15.70;100.00;100714.25;2064218;28;39592;-73
2022/09/13 05:07:50;;;;;;;32.10;23.95;;;;;;;15.71;100.00;100713.31;2064730;28;37167;-73
2022/09/13 05:08:54;;;;;;;28.20;21.35;;;;;;;15.71;100.00;100710.63;2064235;28;20045;-73
2022/09/13 05:09:56;;;;;;;32.22;22.65;;;;;;;15.70;100.00;100706.16;2063651;28;32876;-72
2022/09/13 05:11:00;;;;;;;29.10;21.77;;;;;;;15.71;100.00;100700.69;2064259;28;20148;-72
2022/09/13 05:12:02;;;;;;;32.75;22.55;;;;;;;15.70;100.00;100704.31;2063836;28;37960;-72
2022/09/13 05:13:04;;;;;;;28.63;20.80;;;;;;;15.72;100.00;100702.47;2063797;28;36220;-72
2022/09/13 05:14:09;;;;;;;27.40;21.17;;;;;;;15.74;100.00;100702.34;2064093;28;20042;-72
2022/09/13 05:15:11;;;;;;;33.33;23.00;;;;;;;15.74;100.00;100702.34;2063596;28;36848;-72
2022/09/13 05:16:13;;;;;;;29.20;21.20;;;;;;;15.74;100.00;100695.19;2064170;28;20054;-72
2022/09/13 05:17:14;;;;;;;33.38;23.73;;;;;;;15.76;100.00;100695.13;2064588;28;29815;-72
2022/09/13 05:18:16;;;;;;;36.35;25.15;;;;;;;15.77;100.00;100699.53;2064201;28;36957;-71
2022/09/13 05:19:18;;;;;;;31.77;22.63;;;;;;;15.78;100.00;100701.31;2063668;28;36336;-72
2022/09/13 05:20:20;;;;;;;30.67;23.25;;;;;;;15.79;100.00;100703.03;2064396;28;32143;-72